Time;durP1;ratioP1;P1;durP2;ratioP2;P2;SDS_P1;SDS_P2;PMS_P1;PMS_P2;Temp;Humidity;BMP_temperature;BMP_pressure;BME280_temperature;BME280_humidity;BME280_pressure;Samples;Min_cycle;Max_cycle;Signal;HPM_P1;HPM_P2
2023/06/15 00:02:10;;;;;;;12.75;5.28;;;17.30;99.90;;;;;;5018098;28;20074;-72
2023/06/15 00:04:36;;;;;;;8.13;5.35;;;17.30;99.90;;;;;;5026457;28;20168;-71
2023/06/15 00:07:02;;;;;;;10.73;5.28;;;17.20;99.90;;;;;;5000130;28;20068;-71
2023/06/15 00:09:27;;;;;;;12.32;5.70;;;17.20;99.90;;;;;;5017972;28;20036;-72
2023/06/15 00:11:53;;;;;;;10.68;6.10;;;17.20;99.90;;;;;;5017787;28;20021;-71
2023/06/15 00:14:18;;;;;;;10.18;5.97;;;17.20;99.90;;;;;;4997136;28;20026;-71
2023/06/15 00:16:45;;;;;;;9.55;4.90;;;17.10;99.90;;;;;;5017719;28;20026;-71
2023/06/15 00:19:11;;;;;;;6.72;4.57;;;17.10;99.90;;;;;;5017639;28;20040;-72
2023/06/15 00:21:43;;;;;;;9.95;5.15;;;17.10;99.90;;;;;;5017712;28;20006;-72
2023/06/15 00:24:09;;;;;;;7.75;4.72;;;17.10;99.90;;;;;;5017730;28;20082;-71
2023/06/15 00:26:36;;;;;;;8.15;5.35;;;17.10;99.90;;;;;;5017543;28;20018;-72
2023/06/15 00:29:02;;;;;;;11.50;5.57;;;17.10;99.90;;;;;;5017540;28;20061;-71
2023/06/15 00:31:27;;;;;;;10.65;5.97;;;17.10;99.90;;;;;;5017478;28;20037;-71
2023/06/15 00:33:53;;;;;;;7.63;5.28;;;17.00;99.90;;;;;;5017375;28;20034;-71
2023/06/15 00:36:19;;;;;;;8.52;5.10;;;17.00;99.90;;;;;;5017528;28;20029;-72
2023/06/15 00:38:45;;;;;;;9.77;5.38;;;17.00;99.90;;;;;;5017415;28;20034;-71
2023/06/15 00:41:10;;;;;;;6.55;5.47;;;17.00;99.90;;;;;;5017238;28;20029;-72
2023/06/15 00:43:36;;;;;;;8.07;4.97;;;17.00;99.90;;;;;;4999326;28;20494;-71
2023/06/15 00:46:03;;;;;;;8.57;5.22;;;17.00;99.90;;;;;;5000119;28;20021;-72
2023/06/15 00:48:30;;;;;;;8.15;4.88;;;16.90;99.90;;;;;;5017404;28;20026;-70
2023/06/15 00:50:56;;;;;;;9.63;4.93;;;16.90;99.90;;;;;;5017234;28;20018;-72
2023/06/15 00:53:23;;;;;;;6.75;4.72;;;16.90;99.90;;;;;;5017232;28;20033;-71
2023/06/15 00:55:49;;;;;;;8.85;5.43;;;16.90;99.90;;;;;;5017117;28;20109;-71
2023/06/15 00:58:16;;;;;;;6.32;5.03;;;16.80;99.90;;;;;;5017365;28;20034;-72
2023/06/15 01:00:42;;;;;;;9.13;5.30;;;16.80;99.90;;;;;;5016813;28;20502;-71
2023/06/15 01:03:07;;;;;;;10.73;4.78;;;16.70;99.90;;;;;;4999589;28;20099;-71
2023/06/15 01:05:36;;;;;;;8.05;5.03;;;16.80;99.90;;;;;;4998991;28;20037;-72
2023/06/15 01:08:08;;;;;;;6.13;4.88;;;16.70;99.90;;;;;;5016201;28;20080;-72
2023/06/15 01:10:35;;;;;;;7.88;5.30;;;16.70;99.90;;;;;;4979018;28;20022;-71
2023/06/15 01:13:03;;;;;;;9.20;4.85;;;16.70;99.90;;;;;;5011867;28;20036;-71
2023/06/15 01:15:29;;;;;;;10.10;4.80;;;16.60;99.90;;;;;;5015943;28;20065;-71
2023/06/15 01:17:59;;;;;;;11.13;5.35;;;16.60;99.90;;;;;;5016217;28;20022;-71
2023/06/15 01:20:30;;;;;;;12.43;5.45;;;16.50;99.90;;;;;;5016057;28;20104;-71
2023/06/15 01:23:21;;;;;;;11.43;4.82;;;16.50;99.90;;;;;;5015920;28;20462;-71
2023/06/15 01:25:49;;;;;;;8.40;5.50;;;16.40;99.90;;;;;;5001157;28;20048;-71
2023/06/15 01:28:22;;;;;;;9.07;5.45;;;16.40;99.90;;;;;;4998444;28;20038;-72
2023/06/15 01:30:51;;;;;;;6.28;5.30;;;16.40;99.90;;;;;;5015871;28;20049;-71
2023/06/15 01:33:17;;;;;;;7.78;5.20;;;16.40;99.90;;;;;;5015966;28;20021;-71
2023/06/15 01:35:43;;;;;;;8.10;4.97;;;16.40;99.90;;;;;;5015923;28;20105;-71
2023/06/15 01:38:10;;;;;;;8.10;5.70;;;16.40;99.90;;;;;;5015835;28;20033;-71
2023/06/15 01:40:42;;;;;;;9.70;5.53;;;16.40;99.90;;;;;;5015826;28;20022;-71
2023/06/15 01:43:11;;;;;;;10.43;5.22;;;16.40;99.90;;;;;;5016022;28;20072;-71
2023/06/15 01:45:41;;;;;;;7.35;4.78;;;16.30;99.90;;;;;;5015645;28;20025;-71
2023/06/15 01:48:07;;;;;;;8.97;5.63;;;16.30;99.90;;;;;;5016212;28;20030;-72
2023/06/15 01:50:34;;;;;;;7.10;5.25;;;16.30;99.90;;;;;;5015581;28;20261;-71
2023/06/15 01:53:00;;;;;;;15.07;5.93;;;16.40;99.90;;;;;;5015875;28;20014;-71
2023/06/15 01:55:26;;;;;;;10.85;5.85;;;16.30;99.90;;;;;;5017946;28;20068;-71
2023/06/15 01:57:53;;;;;;;9.98;5.45;;;16.40;99.90;;;;;;5019224;28;20017;-71
2023/06/15 02:00:21;;;;;;;10.15;5.55;;;16.50;99.90;;;;;;5018622;28;20038;-71
2023/06/15 02:02:46;;;;;;;9.30;5.10;;;16.50;99.90;;;;;;5019060;28;20081;-71
2023/06/15 02:05:12;;;;;;;7.85;5.85;;;16.50;99.90;;;;;;4981873;28;1173168;-72
2023/06/15 02:07:37;;;;;;;9.73;5.07;;;16.60;99.90;;;;;;5000841;28;20113;-72
2023/06/15 02:10:03;;;;;;;10.57;4.78;;;16.60;99.90;;;;;;5000525;28;20399;-71
2023/06/15 02:12:30;;;;;;;9.57;5.38;;;16.60;99.90;;;;;;5000666;28;20176;-71
2023/06/15 02:14:55;;;;;;;7.65;4.47;;;16.60;99.90;;;;;;5006962;28;20026;-71
2023/06/15 02:17:24;;;;;;;8.75;5.03;;;16.70;99.90;;;;;;5000499;28;20125;-71
2023/06/15 02:19:50;;;;;;;9.98;5.05;;;16.70;99.90;;;;;;5000103;28;20054;-71
2023/06/15 02:22:16;;;;;;;8.13;5.10;;;16.70;99.90;;;;;;5000195;28;20442;-71
2023/06/15 02:24:42;;;;;;;11.23;5.95;;;16.70;99.90;;;;;;5000434;28;20022;-71
2023/06/15 02:27:09;;;;;;;6.43;4.40;;;16.70;99.90;;;;;;5000052;28;20032;-71
2023/06/15 02:29:35;;;;;;;9.73;4.93;;;16.70;99.90;;;;;;5000160;28;20018;-71
2023/06/15 02:32:01;;;;;;;10.43;4.75;;;16.70;99.90;;;;;;5000158;28;20058;-71
2023/06/15 02:34:26;;;;;;;8.82;4.80;;;16.70;99.90;;;;;;4999955;28;20026;-71
2023/06/15 02:36:55;;;;;;;6.00;4.57;;;16.70;99.90;;;;;;5000208;28;20026;-71
2023/06/15 02:39:21;;;;;;;7.00;4.40;;;16.70;99.90;;;;;;4980467;28;20034;-71
2023/06/15 02:41:47;;;;;;;8.40;4.75;;;16.80;99.90;;;;;;5000257;28;20069;-71
2023/06/15 02:44:16;;;;;;;22.63;7.80;;;16.80;99.90;;;;;;4999589;28;20022;-71
2023/06/15 02:46:42;;;;;;;7.63;4.68;;;16.80;99.90;;;;;;4982481;28;20478;-71
2023/06/15 02:49:08;;;;;;;9.18;4.93;;;16.80;99.90;;;;;;4999778;28;20022;-71
2023/06/15 02:51:37;;;;;;;9.13;4.90;;;16.80;99.90;;;;;;4999863;28;20105;-71
2023/06/15 02:54:06;;;;;;;10.65;4.78;;;16.80;99.90;;;;;;4995533;28;20434;-71
2023/06/15 02:56:35;;;;;;;7.38;4.60;;;16.80;99.90;;;;;;4982036;28;20034;-71
2023/06/15 02:59:01;;;;;;;9.68;5.03;;;16.80;99.90;;;;;;4999418;28;20033;-71
2023/06/15 03:01:36;;;;;;;6.50;4.18;;;16.80;99.90;;;;;;4999397;28;20023;-71
2023/06/15 03:04:04;;;;;;;7.65;4.50;;;16.80;99.90;;;;;;4982659;28;20018;-71
2023/06/15 03:06:33;;;;;;;10.68;5.00;;;16.80;99.90;;;;;;4995891;28;20054;-72
2023/06/15 03:08:59;;;;;;;8.13;4.70;;;16.80;99.90;;;;;;5018988;28;20093;-71
2023/06/15 03:11:26;;;;;;;5.28;3.97;;;16.80;99.90;;;;;;5018861;28;20021;-72
2023/06/15 03:13:53;;;;;;;8.13;4.32;;;16.80;99.90;;;;;;5024007;28;20029;-72
2023/06/15 03:16:20;;;;;;;7.50;4.82;;;16.70;99.90;;;;;;5021573;28;20018;-72
2023/06/15 03:18:47;;;;;;;9.63;4.22;;;16.70;99.90;;;;;;5018720;28;20116;-72
2023/06/15 03:21:14;;;;;;;8.55;4.40;;;16.70;99.90;;;;;;5018823;28;20504;-72
2023/06/15 03:23:41;;;;;;;7.68;4.75;;;16.70;99.90;;;;;;5018679;28;20026;-72
2023/06/15 03:26:07;;;;;;;11.23;4.88;;;16.70;99.90;;;;;;5000971;28;20022;-72
2023/06/15 03:28:37;;;;;;;10.02;4.25;;;16.70;99.90;;;;;;5000980;28;20490;-72
2023/06/15 03:31:04;;;;;;;5.05;4.50;;;16.70;99.90;;;;;;5018575;28;20018;-71
2023/06/15 03:33:30;;;;;;;7.50;4.55;;;16.70;99.90;;;;;;5018747;28;20506;-71
2023/06/15 03:35:57;;;;;;;5.70;4.20;;;16.60;99.90;;;;;;5018663;28;20025;-72
2023/06/15 03:38:23;;;;;;;5.45;4.55;;;16.60;99.90;;;;;;5008813;28;20030;-71
2023/06/15 03:40:49;;;;;;;10.60;4.82;;;16.60;99.90;;;;;;5018288;28;20018;-72
2023/06/15 03:43:15;;;;;;;7.50;4.95;;;16.60;99.90;;;;;;5018778;28;20026;-71
2023/06/15 03:45:41;;;;;;;6.30;4.45;;;16.60;99.90;;;;;;5018100;28;20394;-72
2023/06/15 03:48:07;;;;;;;6.28;4.43;;;16.60;99.90;;;;;;5000935;28;20026;-71
2023/06/15 03:50:33;;;;;;;9.73;5.00;;;16.60;99.90;;;;;;5018200;28;20443;-71
2023/06/15 03:53:00;;;;;;;6.18;4.70;;;16.60;99.90;;;;;;5010320;28;20117;-71
2023/06/15 03:55:26;;;;;;;9.15;4.53;;;16.60;99.90;;;;;;5017806;28;20028;-71
2023/06/15 03:57:51;;;;;;;8.20;4.65;;;16.60;99.90;;;;;;5018307;28;20124;-71
2023/06/15 04:00:18;;;;;;;7.35;4.60;;;16.60;99.90;;;;;;5017517;28;20033;-71
2023/06/15 04:02:44;;;;;;;7.25;4.57;;;16.60;99.90;;;;;;5000477;28;20021;-71
2023/06/15 04:05:09;;;;;;;9.95;5.60;;;16.60;99.90;;;;;;5022040;28;20042;-71
2023/06/15 04:07:35;;;;;;;7.82;4.50;;;16.60;99.90;;;;;;4998533;28;20030;-71
2023/06/15 04:10:02;;;;;;;11.18;5.18;;;16.50;99.90;;;;;;4998071;28;20502;-71
2023/06/15 04:12:27;;;;;;;6.55;3.92;;;16.50;99.90;;;;;;4998382;28;20030;-71
2023/06/15 04:14:53;;;;;;;8.20;4.65;;;16.50;99.90;;;;;;4997892;28;20034;-71
2023/06/15 04:17:19;;;;;;;7.72;5.13;;;16.50;99.90;;;;;;4997827;28;20030;-71
2023/06/15 04:19:45;;;;;;;7.60;4.45;;;16.50;99.90;;;;;;4997917;28;20022;-72
2023/06/15 04:22:11;;;;;;;9.80;4.40;;;16.50;99.90;;;;;;4980704;28;20022;-71
2023/06/15 04:24:37;;;;;;;8.52;4.45;;;16.50;99.90;;;;;;4997949;28;20098;-72
2023/06/15 04:27:02;;;;;;;6.55;4.60;;;16.50;99.90;;;;;;4997960;28;20034;-71
2023/06/15 04:29:30;;;;;;;7.13;4.22;;;16.40;99.90;;;;;;4997574;28;20018;-71
2023/06/15 04:31:57;;;;;;;9.23;4.90;;;16.50;99.90;;;;;;4998075;28;20042;-71
2023/06/15 04:34:26;;;;;;;8.77;4.30;;;16.50;99.90;;;;;;4997638;28;20479;-72
2023/06/15 04:36:52;;;;;;;10.30;5.00;;;16.50;99.90;;;;;;4998059;28;20478;-71
2023/06/15 04:39:21;;;;;;;10.85;5.03;;;16.50;99.90;;;;;;4997693;28;21332;-71
2023/06/15 04:41:46;;;;;;;7.40;3.92;;;16.50;99.90;;;;;;4997912;28;20022;-71
2023/06/15 04:44:12;;;;;;;6.93;4.90;;;16.50;99.90;;;;;;4997324;28;20062;-71
2023/06/15 04:46:39;;;;;;;7.47;4.55;;;16.50;99.90;;;;;;4997932;28;20022;-71
2023/06/15 04:49:06;;;;;;;5.57;3.88;;;16.50;99.90;;;;;;4997523;28;20019;-71
2023/06/15 04:51:32;;;;;;;10.50;5.90;;;16.50;99.90;;;;;;4997713;28;20467;-71
2023/06/15 04:53:58;;;;;;;5.68;4.93;;;16.50;99.90;;;;;;4996476;28;20030;-71
2023/06/15 04:56:24;;;;;;;8.60;4.72;;;16.50;99.90;;;;;;4997461;28;20026;-71
2023/06/15 04:58:50;;;;;;;11.50;5.32;;;16.60;99.90;;;;;;4997157;28;20026;-70
2023/06/15 05:01:15;;;;;;;7.65;4.82;;;16.60;99.90;;;;;;4997795;28;20029;-71
2023/06/15 05:03:41;;;;;;;6.07;4.47;;;16.60;99.90;;;;;;4999614;28;20022;-72
2023/06/15 05:06:07;;;;;;;10.90;4.85;;;16.60;99.90;;;;;;4994130;28;20053;-71
2023/06/15 05:08:34;;;;;;;7.15;4.22;;;16.60;99.90;;;;;;4999398;28;20437;-71
2023/06/15 05:11:01;;;;;;;8.52;4.50;;;16.60;99.90;;;;;;5016902;28;20121;-71
2023/06/15 05:13:27;;;;;;;10.07;5.22;;;16.60;99.90;;;;;;5018556;28;20026;-71
2023/06/15 05:15:53;;;;;;;9.90;4.60;;;16.60;99.90;;;;;;5023034;28;20091;-71
2023/06/15 05:18:19;;;;;;;9.18;4.65;;;16.60;99.90;;;;;;5016911;28;21100;-72
2023/06/15 05:20:45;;;;;;;6.28;4.43;;;16.60;99.90;;;;;;4999338;28;20112;-71
2023/06/15 05:23:11;;;;;;;13.63;5.55;;;16.60;99.90;;;;;;5016904;28;20122;-70
2023/06/15 05:25:38;;;;;;;8.23;5.10;;;16.60;99.90;;;;;;5017166;28;20026;-71
2023/06/15 05:28:03;;;;;;;9.85;5.28;;;16.70;99.90;;;;;;5016889;28;20061;-71
2023/06/15 05:30:29;;;;;;;9.25;4.82;;;16.70;99.90;;;;;;5019809;28;20080;-71
2023/06/15 05:32:55;;;;;;;8.68;3.85;;;16.70;99.90;;;;;;5020790;28;20025;-71
2023/06/15 05:35:21;;;;;;;8.18;4.00;;;16.80;99.90;;;;;;5021023;28;20053;-72
2023/06/15 05:37:47;;;;;;;7.38;4.90;;;16.80;99.90;;;;;;5020754;28;20022;-71
2023/06/15 05:40:13;;;;;;;12.68;5.22;;;16.80;99.90;;;;;;5020727;28;20041;-72
2023/06/15 05:42:38;;;;;;;6.68;4.72;;;16.80;99.90;;;;;;5002984;28;20029;-72
2023/06/15 05:45:05;;;;;;;9.82;5.00;;;16.80;99.90;;;;;;5020652;28;20025;-72
2023/06/15 05:47:31;;;;;;;5.47;4.72;;;16.90;99.90;;;;;;5002824;28;20105;-72
2023/06/15 05:49:57;;;;;;;9.00;4.80;;;16.90;99.90;;;;;;5020721;28;20022;-71
2023/06/15 05:52:23;;;;;;;8.43;5.05;;;16.90;99.90;;;;;;5002819;28;20072;-71
2023/06/15 05:54:49;;;;;;;13.52;5.30;;;16.90;99.90;;;;;;5003319;28;20052;-71
2023/06/15 05:57:15;;;;;;;8.50;5.22;;;16.90;99.90;;;;;;5020403;28;20072;-71
2023/06/15 05:59:41;;;;;;;7.57;4.70;;;16.90;99.90;;;;;;5020393;28;20049;-71
2023/06/15 06:02:08;;;;;;;9.15;4.88;;;16.90;99.90;;;;;;5020284;28;20018;-72
2023/06/15 06:04:34;;;;;;;8.00;4.18;;;16.90;99.90;;;;;;5023073;28;20402;-71
2023/06/15 06:07:02;;;;;;;10.40;4.63;;;16.90;99.90;;;;;;5000777;28;20050;-72
2023/06/15 06:09:27;;;;;;;11.25;4.60;;;17.00;99.90;;;;;;5000694;28;20030;-72
2023/06/15 06:11:53;;;;;;;6.40;4.47;;;17.00;99.90;;;;;;5000040;28;20102;-71
2023/06/15 06:14:19;;;;;;;7.68;4.90;;;17.10;99.90;;;;;;5002118;28;20034;-71
2023/06/15 06:16:44;;;;;;;8.25;4.53;;;17.10;99.90;;;;;;5000603;28;20088;-72
2023/06/15 06:19:11;;;;;;;5.75;4.47;;;17.10;99.90;;;;;;5000595;28;20038;-72
2023/06/15 06:21:36;;;;;;;8.65;5.68;;;17.10;99.90;;;;;;5000343;28;20117;-72
2023/06/15 06:24:02;;;;;;;5.60;4.38;;;17.20;99.90;;;;;;5000670;28;20081;-72
2023/06/15 06:26:28;;;;;;;9.32;5.15;;;17.20;99.90;;;;;;5000176;28;20033;-72
2023/06/15 06:28:55;;;;;;;7.40;4.70;;;17.30;99.90;;;;;;5000090;28;20534;-72
2023/06/15 06:31:21;;;;;;;6.88;4.95;;;17.30;99.90;;;;;;4999922;28;20022;-72
2023/06/15 06:33:46;;;;;;;6.57;4.70;;;17.30;99.90;;;;;;5000270;28;20469;-73
2023/06/15 06:36:12;;;;;;;5.43;4.43;;;17.40;99.90;;;;;;4999933;28;20026;-72
2023/06/15 06:38:38;;;;;;;8.85;4.78;;;17.40;99.90;;;;;;5000034;28;20062;-71
2023/06/15 06:41:04;;;;;;;10.18;5.22;;;17.50;99.90;;;;;;4999293;28;20037;-71
2023/06/15 06:43:29;;;;;;;6.55;4.78;;;17.50;99.90;;;;;;4999817;28;20078;-71
2023/06/15 06:45:55;;;;;;;12.27;4.85;;;17.60;99.90;;;;;;4999925;28;20022;-71
2023/06/15 06:48:21;;;;;;;7.70;4.93;;;17.70;99.90;;;;;;4979671;28;20026;-72
2023/06/15 06:50:46;;;;;;;7.30;4.97;;;17.70;99.90;;;;;;4997397;28;20022;-71
2023/06/15 06:53:12;;;;;;;12.40;4.68;;;17.70;99.90;;;;;;4974381;28;20027;-71
2023/06/15 06:55:38;;;;;;;6.13;4.47;;;17.70;99.90;;;;;;4996480;28;20021;-72
2023/06/15 06:58:05;;;;;;;7.72;4.40;;;17.80;99.90;;;;;;4999653;28;20026;-72
2023/06/15 07:00:31;;;;;;;9.15;4.38;;;17.80;99.90;;;;;;4981864;28;20088;-72
2023/06/15 07:02:57;;;;;;;5.95;4.57;;;17.90;99.90;;;;;;4981643;28;20030;-72
2023/06/15 07:05:23;;;;;;;9.52;4.88;;;17.90;99.90;;;;;;4999419;28;20485;-73
2023/06/15 07:07:49;;;;;;;10.98;5.05;;;17.90;99.90;;;;;;4994877;28;20026;-72
2023/06/15 07:10:15;;;;;;;7.43;4.53;;;17.90;99.90;;;;;;5007872;28;20049;-70
2023/06/15 07:12:40;;;;;;;9.43;4.95;;;18.00;99.90;;;;;;4999149;28;20026;-71
2023/06/15 07:15:07;;;;;;;9.73;5.05;;;18.10;99.90;;;;;;4981181;28;20026;-71
2023/06/15 07:17:33;;;;;;;11.25;5.03;;;18.20;99.90;;;;;;4987367;28;20030;-72
2023/06/15 07:19:58;;;;;;;7.80;4.38;;;18.30;99.90;;;;;;4999384;28;20023;-71
2023/06/15 07:22:24;;;;;;;6.57;4.32;;;18.30;99.90;;;;;;4998191;28;20028;-72
2023/06/15 07:24:51;;;;;;;5.88;4.15;;;18.40;99.90;;;;;;4999158;28;20092;-71
2023/06/15 07:27:17;;;;;;;6.03;4.55;;;18.50;99.90;;;;;;4999111;28;20093;-71
2023/06/15 07:29:43;;;;;;;7.10;4.70;;;18.50;99.90;;;;;;4998854;28;20026;-72
2023/06/15 07:32:09;;;;;;;8.05;4.53;;;18.60;99.90;;;;;;4999157;28;20033;-71
2023/06/15 07:34:34;;;;;;;9.25;4.50;;;18.80;99.90;;;;;;4999100;28;20050;-71
2023/06/15 07:37:00;;;;;;;6.15;4.32;;;18.90;99.90;;;;;;4998605;28;20039;-72
2023/06/15 07:39:26;;;;;;;10.27;4.30;;;18.90;99.90;;;;;;4998662;28;20031;-71
2023/06/15 07:41:52;;;;;;;8.38;4.47;;;18.80;99.90;;;;;;4997529;28;20031;-71
2023/06/15 07:44:17;;;;;;;7.10;4.10;;;18.90;99.90;;;;;;4997755;28;20100;-71
2023/06/15 07:46:43;;;;;;;12.07;5.40;;;18.80;99.90;;;;;;4998529;28;20058;-71
2023/06/15 07:49:09;;;;;;;8.73;4.70;;;18.90;99.90;;;;;;4998705;28;20027;-71
2023/06/15 07:51:35;;;;;;;5.32;4.10;;;19.00;99.90;;;;;;4997835;28;20023;-71
2023/06/15 07:54:01;;;;;;;9.45;4.25;;;19.00;99.90;;;;;;4998279;28;20073;-72
2023/06/15 07:56:27;;;;;;;7.28;3.95;;;19.00;99.90;;;;;;4981048;28;20034;-73
2023/06/15 07:58:52;;;;;;;7.05;4.20;;;19.10;99.90;;;;;;4997980;28;20526;-73
2023/06/15 08:01:18;;;;;;;12.20;4.32;;;19.20;99.90;;;;;;4980872;28;20537;-74
2023/06/15 08:03:44;;;;;;;7.57;4.35;;;19.30;99.90;;;;;;5000634;28;20030;-74
2023/06/15 08:06:10;;;;;;;8.43;4.15;;;19.30;99.90;;;;;;4999398;28;20121;-73
2023/06/15 08:08:36;;;;;;;6.07;4.20;;;19.30;99.90;;;;;;4998346;28;20041;-73
2023/06/15 08:11:02;;;;;;;7.57;4.72;;;19.40;99.90;;;;;;4998264;28;20065;-74
2023/06/15 08:13:28;;;;;;;6.60;4.10;;;19.30;99.90;;;;;;5000154;28;20026;-73
2023/06/15 08:15:53;;;;;;;9.20;4.70;;;19.30;99.90;;;;;;4998471;28;20393;-73
2023/06/15 08:18:19;;;;;;;6.90;4.10;;;19.30;99.90;;;;;;4998148;28;20033;-73
2023/06/15 08:20:46;;;;;;;6.35;4.55;;;19.20;99.90;;;;;;4998073;28;20014;-73
2023/06/15 08:23:11;;;;;;;5.55;4.53;;;19.30;99.90;;;;;;4980585;28;20033;-73
2023/06/15 08:25:37;;;;;;;11.63;5.70;;;19.50;99.90;;;;;;4987316;28;20018;-73
2023/06/15 08:28:03;;;;;;;7.82;5.13;;;19.70;99.90;;;;;;4998043;28;20395;-73
2023/06/15 08:30:28;;;;;;;6.53;5.00;;;19.80;99.90;;;;;;4980373;28;20120;-73
2023/06/15 08:32:54;;;;;;;6.68;4.38;;;19.70;99.90;;;;;;4997894;28;20027;-72
2023/06/15 08:35:20;;;;;;;10.90;4.68;;;19.80;99.90;;;;;;4998110;28;20026;-73
2023/06/15 08:37:45;;;;;;;7.50;5.00;;;19.90;99.90;;;;;;4997662;28;20022;-73
2023/06/15 08:40:11;;;;;;;7.15;5.22;;;19.90;99.90;;;;;;4997904;28;20030;-72
2023/06/15 08:42:38;;;;;;;9.75;4.95;;;19.90;99.90;;;;;;4997748;28;20018;-74
2023/06/15 08:45:06;;;;;;;7.15;4.85;;;20.00;99.90;;;;;;4997663;28;20038;-73
2023/06/15 08:47:35;;;;;;;5.53;4.75;;;20.00;99.90;;;;;;4997775;28;20026;-73
2023/06/15 08:50:05;;;;;;;8.88;4.88;;;20.10;99.90;;;;;;4980570;28;20030;-73
2023/06/15 08:52:33;;;;;;;;;;;20.20;99.90;;;;;;4997437;28;20094;-73
2023/06/15 08:55:01;;;;;;;15.57;5.50;;;20.30;99.90;;;;;;4997737;28;19910;-73
2023/06/15 08:57:28;;;;;;;7.45;4.90;;;20.20;99.90;;;;;;4997437;28;20018;-73
2023/06/15 08:59:55;;;;;;;7.07;5.03;;;20.10;99.90;;;;;;4976742;28;20031;-73
2023/06/15 09:02:23;;;;;;;6.45;4.55;;;20.20;99.90;;;;;;4979962;28;20043;-73
2023/06/15 09:04:53;;;;;;;7.50;4.95;;;20.30;99.90;;;;;;4997162;28;20331;-74
2023/06/15 09:07:21;;;;;;;7.78;5.22;;;20.40;99.90;;;;;;4976752;28;20023;-73
2023/06/15 09:10:25;;;;;;;13.32;6.57;;;20.50;99.90;;;;;;4992134;28;20030;-74
2023/06/15 09:12:56;;;;;;;13.30;6.07;;;20.50;99.90;;;;;;4990968;28;20053;-74
2023/06/15 09:15:21;;;;;;;;;;;20.40;99.90;;;;;;4994685;28;20026;-74
2023/06/15 09:17:51;;;;;;;11.50;6.13;;;20.40;99.90;;;;;;4978906;28;19912;-74
2023/06/15 09:20:19;;;;;;;7.18;5.53;;;20.50;99.90;;;;;;4977208;28;20113;-74
2023/06/15 09:22:45;;;;;;;9.98;5.78;;;20.40;99.90;;;;;;4999433;28;20099;-74
2023/06/15 09:25:21;;;;;;;7.90;5.40;;;20.60;99.90;;;;;;4994738;28;20053;-74
2023/06/15 09:28:00;;;;;;;8.82;6.07;;;20.80;99.90;;;;;;4993854;28;20022;-73
2023/06/15 09:30:34;;;;;;;7.07;5.60;;;20.90;99.90;;;;;;4998389;28;20113;-73
2023/06/15 09:33:13;;;;;;;8.38;4.65;;;21.00;99.90;;;;;;4996250;28;20018;-73
2023/06/15 09:36:02;;;;;;;10.52;5.40;;;21.10;99.90;;;;;;4993431;28;20019;-73
2023/06/15 09:38:42;;;;;;;7.35;5.32;;;21.30;99.90;;;;;;4997827;28;20026;-73
2023/06/15 09:41:09;;;;;;;10.68;6.30;;;21.40;99.90;;;;;;4972966;28;20122;-73
2023/06/15 09:43:38;;;;;;;7.53;4.97;;;21.40;99.90;;;;;;4995478;28;20026;-74
2023/06/15 09:46:18;;;;;;;15.93;5.70;;;21.50;99.90;;;;;;4995964;28;20125;-73
2023/06/15 09:48:44;;;;;;;;;;;21.40;99.90;;;;;;4993334;28;20037;-73
2023/06/15 09:51:10;;;;;;;12.40;7.57;;;21.50;99.90;;;;;;4999574;28;19905;-73
2023/06/15 09:53:39;;;;;;;12.55;7.53;;;21.70;99.90;;;;;;4992970;28;20065;-72
2023/06/15 09:56:05;;;;;;;8.70;6.30;;;21.90;99.90;;;;;;4996549;28;20034;-72
2023/06/15 09:58:32;;;;;;;6.93;4.80;;;21.90;99.90;;;;;;4992219;28;20405;-72
2023/06/15 10:00:58;;;;;;;10.23;6.05;;;22.00;99.90;;;;;;4995759;28;20018;-72
2023/06/15 10:03:26;;;;;;;8.63;5.20;;;22.10;99.90;;;;;;4996429;28;20034;-72
2023/06/15 10:06:01;;;;;;;11.02;6.25;;;22.20;99.90;;;;;;4993336;28;20034;-72
2023/06/15 10:08:30;;;;;;;12.90;6.70;;;22.30;99.90;;;;;;4978904;28;20038;-73
2023/06/15 10:10:58;;;;;;;11.43;6.03;;;22.20;99.90;;;;;;4998352;28;20038;-72
2023/06/15 10:13:53;;;;;;;10.88;5.72;;;22.20;99.90;;;;;;4994097;28;20062;-72
2023/06/15 10:16:21;;;;;;;8.05;5.25;;;22.50;99.90;;;;;;4995639;28;20022;-73
2023/06/15 10:18:58;;;;;;;7.07;5.07;;;22.40;99.90;;;;;;4985637;28;20094;-72
2023/06/15 10:21:27;;;;;;;7.70;5.25;;;22.40;99.90;;;;;;5000527;28;20014;-72
2023/06/15 10:24:02;;;;;;;7.50;5.95;;;22.50;99.90;;;;;;4999002;28;20023;-73
2023/06/15 10:26:28;;;;;;;10.38;6.25;;;22.50;99.90;;;;;;5000559;28;20052;-72
2023/06/15 10:29:06;;;;;;;8.90;5.75;;;22.70;99.90;;;;;;4999316;28;20050;-73
2023/06/15 10:31:42;;;;;;;6.95;4.88;;;22.80;99.90;;;;;;4996517;28;20037;-73
2023/06/15 10:34:15;;;;;;;7.78;5.13;;;22.80;99.90;;;;;;4998481;28;20034;-73
2023/06/15 10:36:56;;;;;;;8.13;5.53;;;22.70;99.90;;;;;;5002753;28;20027;-72
2023/06/15 10:39:35;;;;;;;7.32;4.88;;;22.70;99.90;;;;;;4996125;28;20038;-72
2023/06/15 10:42:21;;;;;;;10.40;5.53;;;22.70;99.90;;;;;;4998762;28;20023;-72
2023/06/15 10:44:47;;;;;;;6.68;5.03;;;22.50;99.90;;;;;;4999486;28;20041;-72
2023/06/15 10:47:14;;;;;;;9.68;4.80;;;22.50;99.90;;;;;;4980189;28;20018;-72
2023/06/15 10:49:50;;;;;;;6.72;5.00;;;22.60;99.90;;;;;;5002292;28;20113;-72
2023/06/15 10:52:16;;;;;;;7.03;4.68;;;22.60;99.90;;;;;;4997780;28;20032;-71
2023/06/15 10:54:42;;;;;;;9.00;5.32;;;22.70;99.90;;;;;;4998474;28;20106;-72
2023/06/15 10:57:08;;;;;;;5.47;4.47;;;22.70;99.90;;;;;;5002306;28;20054;-72
2023/06/15 10:59:41;;;;;;;5.95;4.13;;;22.90;99.90;;;;;;4998631;28;20022;-73
2023/06/15 11:02:28;;;;;;;6.90;4.05;;;23.00;99.90;;;;;;4988772;28;20022;-74
2023/06/15 11:05:00;;;;;;;9.82;5.18;;;22.90;99.90;;;;;;4996207;28;20478;-73
2023/06/15 11:07:30;;;;;;;6.78;4.72;;;22.90;99.90;;;;;;4985783;28;20018;-75
2023/06/15 11:09:56;;;;;;;6.10;4.73;;;22.90;99.90;;;;;;4998390;28;20078;-72
2023/06/15 11:12:35;;;;;;;9.98;4.80;;;23.00;99.90;;;;;;5002429;28;20273;-72
2023/06/15 11:15:03;;;;;;;5.32;4.15;;;22.90;99.90;;;;;;4979776;28;20022;-71
2023/06/15 11:17:29;;;;;;;9.45;4.50;;;23.10;99.90;;;;;;4977098;28;20023;-72
2023/06/15 11:19:57;;;;;;;8.50;4.95;;;23.30;99.90;;;;;;5001267;28;20044;-71
2023/06/15 11:22:25;;;;;;;8.02;4.70;;;23.40;99.90;;;;;;4997737;28;20018;-73
2023/06/15 11:24:54;;;;;;;6.72;4.80;;;23.50;99.90;;;;;;5002871;28;20022;-72
2023/06/15 11:27:22;;;;;;;6.93;4.60;;;23.40;99.90;;;;;;4997868;28;20490;-72
2023/06/15 11:29:57;;;;;;;8.15;4.72;;;23.30;99.90;;;;;;4998031;28;20026;-73
2023/06/15 11:32:26;;;;;;;6.93;4.40;;;23.20;99.90;;;;;;4999565;28;20046;-72
2023/06/15 11:35:03;;;;;;;9.13;4.57;;;23.30;99.90;;;;;;4998711;28;20552;-72
2023/06/15 11:37:29;;;;;;;7.20;5.03;;;23.40;99.90;;;;;;4997760;28;20026;-72
2023/06/15 11:39:55;;;;;;;7.57;4.63;;;23.40;99.90;;;;;;4998844;28;20071;-72
2023/06/15 11:42:22;;;;;;;8.13;3.65;;;23.50;99.90;;;;;;4979847;28;20028;-71
2023/06/15 11:44:49;;;;;;;5.57;4.18;;;23.60;99.90;;;;;;4999442;28;20069;-72
2023/06/15 11:47:16;;;;;;;7.35;4.13;;;23.60;99.90;;;;;;4999010;28;20019;-73
2023/06/15 11:49:44;;;;;;;7.05;3.83;;;23.70;99.90;;;;;;4997865;28;20022;-72
2023/06/15 11:52:10;;;;;;;6.20;4.63;;;23.70;99.90;;;;;;4989965;28;20473;-72
2023/06/15 11:54:36;;;;;;;5.45;4.40;;;23.60;99.90;;;;;;4982598;28;20049;-72
2023/06/15 11:57:02;;;;;;;9.55;4.78;;;23.50;99.90;;;;;;5000545;28;20105;-73
2023/06/15 11:59:27;;;;;;;8.55;4.65;;;23.30;99.90;;;;;;4980033;28;20022;-72
2023/06/15 12:01:59;;;;;;;7.03;4.80;;;23.30;99.90;;;;;;4980433;28;20093;-73
2023/06/15 12:04:31;;;;;;;5.78;3.83;;;23.60;99.90;;;;;;4998853;28;20054;-72
2023/06/15 12:06:59;;;;;;;7.78;5.07;;;24.00;99.90;;;;;;4996335;28;20487;-72
2023/06/15 12:09:24;;;;;;;6.15;4.28;;;24.30;99.90;;;;;;5015005;28;20018;-72
2023/06/15 12:11:50;;;;;;;5.85;3.63;;;24.40;99.90;;;;;;5017768;28;20028;-72
2023/06/15 12:14:21;;;;;;;6.75;4.70;;;24.50;99.90;;;;;;4997984;28;20061;-72
2023/06/15 12:16:52;;;;;;;7.88;4.30;;;24.20;99.90;;;;;;4999783;28;20038;-73
2023/06/15 12:19:20;;;;;;;6.38;4.57;;;24.10;99.90;;;;;;5018658;28;20022;-72
2023/06/15 12:21:47;;;;;;;8.07;5.10;;;24.00;99.90;;;;;;5015853;28;20565;-72
2023/06/15 12:24:14;;;;;;;6.28;4.20;;;23.90;99.90;;;;;;5015730;28;20168;-72
2023/06/15 12:26:40;;;;;;;7.10;4.57;;;24.00;99.90;;;;;;5000565;28;20029;-73
2023/06/15 12:29:17;;;;;;;7.55;4.97;;;24.20;99.90;;;;;;5015755;28;20022;-72
2023/06/15 12:31:47;;;;;;;8.25;5.28;;;24.30;99.90;;;;;;5015841;28;20076;-72
2023/06/15 12:34:13;;;;;;;8.68;4.90;;;24.40;99.90;;;;;;5017486;28;20045;-72
2023/06/15 12:36:40;;;;;;;9.43;4.85;;;24.60;99.90;;;;;;4999141;28;20042;-72
2023/06/15 12:39:08;;;;;;;9.57;3.83;;;24.50;99.90;;;;;;5015890;28;20080;-72
2023/06/15 12:41:39;;;;;;;7.22;4.30;;;24.50;99.90;;;;;;5013880;28;20014;-72
2023/06/15 12:44:05;;;;;;;;;;;24.30;99.90;;;;;;5018599;28;20030;-72
2023/06/15 12:46:34;;;;;;;10.32;4.75;;;24.30;99.90;;;;;;5018693;28;19905;-72
2023/06/15 12:49:00;;;;;;;6.13;4.57;;;24.40;99.90;;;;;;5018485;28;20410;-72